Time;durP1;ratioP1;P1;durP2;ratioP2;P2;SDS_P1;SDS_P2;PMS_P1;PMS_P2;Temp;Humidity;BMP_temperature;BMP_pressure;BME280_temperature;BME280_humidity;BME280_pressure;Samples;Min_cycle;Max_cycle;Signal;HPM_P1;HPM_P2
2024/03/14 00:02:35;;;;;;;19.50;6.97;;;;;;;;;;5095347;28;20073;-68
2024/03/14 00:05:20;;;;;;;17.80;8.18;;;;;;;;;;5095405;28;20401;-68
2024/03/14 00:08:07;;;;;;;22.85;7.88;;;;;;;;;;5095525;28;20109;-68
2024/03/14 00:10:54;;;;;;;14.52;7.15;;;;;;;;;;5095128;28;20052;-67
2024/03/14 00:13:39;;;;;;;16.00;7.63;;;;;;;;;;5093827;28;20110;-67
2024/03/14 00:16:26;;;;;;;18.42;8.85;;;;;;;;;;5093464;28;20055;-68
2024/03/14 00:19:12;;;;;;;19.42;7.40;;;;;;;;;;5094405;28;20016;-68
2024/03/14 00:21:58;;;;;;;23.70;9.07;;;;;;;;;;5095190;28;20036;-68
2024/03/14 00:24:43;;;;;;;18.27;9.23;;;;;;;;;;5106124;28;20084;-68
2024/03/14 00:27:29;;;;;;;25.10;9.45;;;;;;;;;;5114908;28;20035;-68
2024/03/14 00:30:18;;;;;;;21.73;9.23;;;;;;;;;;5114081;28;20053;-68
2024/03/14 00:33:04;;;;;;;20.67;8.82;;;;;;;;;;5114184;28;20031;-68
2024/03/14 00:35:50;;;;;;;24.15;10.30;;;;;;;;;;5113084;28;20396;-68
2024/03/14 00:38:35;;;;;;;20.35;9.00;;;;;;;;;;5115058;28;20080;-68
2024/03/14 00:41:21;;;;;;;23.45;9.55;;;;;;;;;;5114344;28;20505;-68
2024/03/14 00:44:07;;;;;;;22.90;8.77;;;;;;;;;;5114190;28;20085;-67
2024/03/14 00:46:53;;;;;;;22.63;9.80;;;;;;;;;;5114432;28;20028;-68
2024/03/14 00:49:40;;;;;;;22.10;9.30;;;;;;;;;;5113896;28;20405;-67
2024/03/14 00:52:26;;;;;;;22.65;9.65;;;;;;;;;;5114442;28;20016;-68
2024/03/14 00:55:11;;;;;;;23.65;9.30;;;;;;;;;;5114093;28;20030;-68
2024/03/14 00:57:57;;;;;;;23.80;11.32;;;;;;;;;;5113772;28;20023;-68
2024/03/14 01:00:43;;;;;;;21.67;9.52;;;;;;;;;;5114185;28;20023;-68
2024/03/14 01:03:32;;;;;;;23.38;10.23;;;;;;;;;;5113413;28;20020;-68
2024/03/14 01:06:17;;;;;;;26.33;9.05;;;;;;;;;;5113885;28;20031;-67
2024/03/14 01:09:03;;;;;;;20.50;9.23;;;;;;;;;;5113528;28;20019;-67
2024/03/14 01:11:48;;;;;;;24.45;10.50;;;;;;;;;;5094105;28;20500;-67
2024/03/14 01:14:34;;;;;;;19.15;8.68;;;;;;;;;;5093269;28;20027;-68
2024/03/14 01:17:20;;;;;;;22.08;8.93;;;;;;;;;;5097973;28;20051;-68
2024/03/14 01:20:15;;;;;;;25.25;9.07;;;;;;;;;;5113820;28;20433;-68
2024/03/14 01:23:01;;;;;;;22.38;9.32;;;;;;;;;;5113557;28;20030;-68
2024/03/14 01:25:47;;;;;;;25.25;10.45;;;;;;;;;;5093062;28;20559;-68
2024/03/14 01:28:32;;;;;;;24.25;9.40;;;;;;;;;;5092749;28;20177;-68
2024/03/14 01:31:18;;;;;;;23.00;9.82;;;;;;;;;;5092987;28;20020;-68
2024/03/14 01:34:05;;;;;;;28.70;10.13;;;;;;;;;;5078522;28;20073;-68
2024/03/14 01:36:50;;;;;;;25.27;8.98;;;;;;;;;;5092455;28;20032;-68
2024/03/14 01:39:37;;;;;;;24.65;10.02;;;;;;;;;;5092888;28;20035;-68
2024/03/14 01:42:23;;;;;;;22.80;9.05;;;;;;;;;;5093976;28;20025;-68
2024/03/14 01:45:15;;;;;;;22.83;10.55;;;;;;;;;;5091935;28;20028;-68
2024/03/14 01:48:00;;;;;;;27.98;10.50;;;;;;;;;;5092340;28;20378;-68
2024/03/14 01:50:46;;;;;;;25.80;10.60;;;;;;;;;;5082760;28;20047;-68
2024/03/14 01:53:32;;;;;;;26.35;10.82;;;;;;;;;;5072424;28;20087;-68
2024/03/14 01:56:21;;;;;;;22.10;10.00;;;;;;;;;;5077829;28;20100;-68
2024/03/14 01:59:07;;;;;;;21.55;8.73;;;;;;;;;;5078887;28;20027;-67
2024/03/14 02:01:54;;;;;;;22.50;9.60;;;;;;;;;;5091552;28;20106;-68
2024/03/14 02:05:18;;;;;;;21.48;9.48;;;;;;;;;;5093426;28;20062;-68
2024/03/14 02:08:04;;;;;;;20.73;9.35;;;;;;;;;;5055603;28;20533;-68
2024/03/14 02:10:50;;;;;;;23.48;9.60;;;;;;;;;;5077717;28;20028;-68
2024/03/14 02:13:35;;;;;;;23.75;10.07;;;;;;;;;;5092021;28;20020;-68
2024/03/14 02:16:21;;;;;;;26.10;10.68;;;;;;;;;;5091591;28;20027;-68
2024/03/14 02:19:07;;;;;;;20.50;9.05;;;;;;;;;;5091296;28;20016;-67
2024/03/14 02:21:58;;;;;;;25.67;9.88;;;;;;;;;;5091866;28;20378;-68
2024/03/14 02:24:43;;;;;;;22.52;8.68;;;;;;;;;;5103442;28;20025;-67
2024/03/14 02:27:29;;;;;;;25.63;8.32;;;;;;;;;;5112661;28;20038;-68
2024/03/14 02:30:15;;;;;;;22.85;9.13;;;;;;;;;;5111498;28;20103;-68
2024/03/14 02:33:01;;;;;;;22.27;8.77;;;;;;;;;;5093132;28;20031;-67
2024/03/14 02:35:47;;;;;;;25.58;10.07;;;;;;;;;;5092029;28;20028;-68
2024/03/14 02:38:33;;;;;;;29.38;9.52;;;;;;;;;;5093029;28;20107;-68
2024/03/14 02:41:19;;;;;;;23.67;9.25;;;;;;;;;;5091663;28;20409;-67
2024/03/14 02:44:15;;;;;;;27.05;9.98;;;;;;;;;;5092131;28;20051;-67
2024/03/14 02:47:01;;;;;;;33.08;10.82;;;;;;;;;;5111912;28;20031;-67
2024/03/14 02:49:46;;;;;;;25.63;9.32;;;;;;;;;;5112027;28;20449;-68
2024/03/14 02:52:32;;;;;;;22.45;9.32;;;;;;;;;;5112433;28;20024;-68
2024/03/14 02:55:18;;;;;;;20.52;9.73;;;;;;;;;;5112549;28;20030;-68
2024/03/14 02:58:03;;;;;;;22.85;9.25;;;;;;;;;;5111909;28;20034;-68
2024/03/14 03:00:50;;;;;;;24.88;8.57;;;;;;;;;;5116006;28;20055;-68
2024/03/14 03:03:40;;;;;;;23.38;9.60;;;;;;;;;;5115082;28;20446;-68
2024/03/14 03:06:26;;;;;;;22.50;9.18;;;;;;;;;;5116233;28;20107;-67
2024/03/14 03:09:13;;;;;;;22.23;9.80;;;;;;;;;;5115609;28;20586;-67
2024/03/14 03:11:58;;;;;;;30.65;10.63;;;;;;;;;;5116208;28;20392;-68
2024/03/14 03:14:44;;;;;;;22.90;9.55;;;;;;;;;;5115940;28;20073;-68
2024/03/14 03:17:31;;;;;;;30.35;10.25;;;;;;;;;;5115771;28;20055;-68
2024/03/14 03:20:18;;;;;;;27.05;10.68;;;;;;;;;;5116458;28;20507;-68
2024/03/14 03:23:08;;;;;;;24.30;9.02;;;;;;;;;;5115264;28;20019;-68
2024/03/14 03:25:54;;;;;;;38.42;11.95;;;;;;;;;;5115629;28;20471;-68
2024/03/14 03:28:39;;;;;;;28.38;12.18;;;;;;;;;;5115711;28;20026;-68
2024/03/14 03:31:25;;;;;;;29.85;11.50;;;;;;;;;;5116617;28;20072;-68
2024/03/14 03:34:11;;;;;;;29.40;11.90;;;;;;;;;;5115688;28;20020;-67
2024/03/14 03:36:56;;;;;;;36.75;11.48;;;;;;;;;;5115612;28;20049;-68
2024/03/14 03:39:44;;;;;;;29.27;11.40;;;;;;;;;;5115931;28;20028;-67
2024/03/14 03:42:30;;;;;;;27.20;11.82;;;;;;;;;;5113710;28;20396;-68
2024/03/14 03:45:16;;;;;;;35.75;12.77;;;;;;;;;;5116281;28;20619;-68
2024/03/14 03:48:01;;;;;;;33.47;12.25;;;;;;;;;;5115217;28;20446;-68
2024/03/14 03:50:48;;;;;;;35.13;13.88;;;;;;;;;;5115186;28;20019;-68
2024/03/14 03:53:34;;;;;;;44.60;13.75;;;;;;;;;;5114770;28;20024;-68
2024/03/14 03:56:23;;;;;;;36.13;13.13;;;;;;;;;;5102946;28;20497;-68
2024/03/14 03:59:10;;;;;;;34.95;14.30;;;;;;;;;;5115976;28;20049;-68
2024/03/14 04:01:56;;;;;;;35.22;13.50;;;;;;;;;;5114845;28;20019;-68
2024/03/14 04:04:42;;;;;;;33.90;13.77;;;;;;;;;;5103290;28;20114;-68
2024/03/14 04:07:28;;;;;;;35.13;13.93;;;;;;;;;;5115355;28;20084;-68
2024/03/14 04:10:14;;;;;;;29.75;13.32;;;;;;;;;;5113658;28;20016;-67
2024/03/14 04:13:00;;;;;;;37.95;13.32;;;;;;;;;;5114821;28;20076;-68
2024/03/14 04:15:46;;;;;;;39.67;14.68;;;;;;;;;;5115200;28;20027;-68
2024/03/14 04:18:32;;;;;;;34.17;12.20;;;;;;;;;;5115546;27;20494;-68
2024/03/14 04:21:18;;;;;;;36.10;15.32;;;;;;;;;;5114231;28;20031;-68
2024/03/14 04:24:04;;;;;;;36.25;12.25;;;;;;;;;;5114206;28;20032;-68
2024/03/14 04:26:50;;;;;;;39.28;14.43;;;;;;;;;;5114606;28;20101;-68
2024/03/14 04:29:35;;;;;;;32.63;12.73;;;;;;;;;;5114289;28;20088;-67
2024/03/14 04:32:23;;;;;;;38.78;12.95;;;;;;;;;;5115012;27;20115;-68
2024/03/14 04:35:10;;;;;;;32.80;14.20;;;;;;;;;;5113732;28;20020;-68
2024/03/14 04:37:55;;;;;;;42.88;13.98;;;;;;;;;;5115210;28;20038;-68
2024/03/14 04:40:43;;;;;;;42.83;16.30;;;;;;;;;;5114988;28;20020;-68
2024/03/14 04:43:28;;;;;;;40.72;15.70;;;;;;;;;;5113491;28;20016;-68
2024/03/14 04:46:14;;;;;;;41.72;15.98;;;;;;;;;;5114308;28;20028;-68
2024/03/14 04:49:00;;;;;;;45.30;16.75;;;;;;;;;;5114644;28;20023;-68
2024/03/14 04:51:46;;;;;;;42.75;15.52;;;;;;;;;;5113468;28;20098;-68
2024/03/14 04:54:35;;;;;;;41.25;16.08;;;;;;;;;;5113853;28;20024;-68
2024/03/14 04:57:21;;;;;;;41.22;16.05;;;;;;;;;;5113606;28;20023;-68
2024/03/14 05:00:11;;;;;;;48.47;17.58;;;;;;;;;;5114325;28;20038;-68
2024/03/14 05:02:56;;;;;;;40.63;15.65;;;;;;;;;;5113561;28;20019;-68
2024/03/14 05:05:42;;;;;;;40.97;16.23;;;;;;;;;;5114572;28;20020;-68
2024/03/14 05:08:28;;;;;;;48.30;16.33;;;;;;;;;;5113698;28;20023;-67
2024/03/14 05:11:14;;;;;;;39.00;15.10;;;;;;;;;;5113092;28;20024;-68
2024/03/14 05:14:02;;;;;;;38.72;14.48;;;;;;;;;;5114218;28;20011;-68
2024/03/14 05:16:48;;;;;;;41.60;14.90;;;;;;;;;;5113374;28;20078;-67
2024/03/14 05:19:34;;;;;;;48.95;16.00;;;;;;;;;;5113628;28;20026;-68
2024/03/14 05:22:20;;;;;;;35.60;13.98;;;;;;;;;;5113838;28;20019;-68
2024/03/14 05:25:06;;;;;;;47.03;15.90;;;;;;;;;;5113289;28;20039;-69
2024/03/14 05:27:52;;;;;;;39.45;15.68;;;;;;;;;;5112992;28;20020;-69
2024/03/14 05:30:38;;;;;;;38.75;15.07;;;;;;;;;;5113987;28;20396;-69
2024/03/14 05:33:23;;;;;;;39.33;14.70;;;;;;;;;;5094802;28;20020;-69
2024/03/14 05:36:09;;;;;;;38.92;14.82;;;;;;;;;;5093454;28;20024;-69
2024/03/14 05:38:55;;;;;;;49.20;18.17;;;;;;;;;;5112349;28;20055;-68
2024/03/14 05:41:43;;;;;;;46.60;16.02;;;;;;;;;;5113233;28;20106;-69
2024/03/14 05:44:29;;;;;;;39.67;15.38;;;;;;;;;;5113302;28;20447;-68
2024/03/14 05:47:17;;;;;;;44.70;15.77;;;;;;;;;;5113030;28;20024;-69
2024/03/14 05:50:06;;;;;;;43.13;15.20;;;;;;;;;;5113836;28;20053;-68
2024/03/14 05:52:52;;;;;;;42.83;15.52;;;;;;;;;;5113098;28;20553;-69
2024/03/14 05:55:38;;;;;;;41.38;16.65;;;;;;;;;;5112810;28;20024;-68
2024/03/14 05:58:23;;;;;;;41.92;15.23;;;;;;;;;;5113862;28;20023;-69
2024/03/14 06:01:11;;;;;;;41.08;15.27;;;;;;;;;;5114083;28;20051;-69
2024/03/14 06:03:57;;;;;;;40.20;15.77;;;;;;;;;;5111547;28;20023;-69
2024/03/14 06:06:43;;;;;;;35.67;14.98;;;;;;;;;;5112719;28;20512;-69
2024/03/14 06:09:43;;;;;;;34.38;14.25;;;;;;;;;;5113590;28;20023;-69
2024/03/14 06:12:29;;;;;;;40.50;15.45;;;;;;;;;;5111953;28;20020;-68
2024/03/14 06:15:17;;;;;;;41.28;15.77;;;;;;;;;;5093390;28;20036;-69
2024/03/14 06:18:05;;;;;;;40.78;13.90;;;;;;;;;;5092162;28;20077;-69
2024/03/14 06:20:51;;;;;;;38.33;14.57;;;;;;;;;;5110282;28;20103;-68
2024/03/14 06:23:36;;;;;;;31.95;12.75;;;;;;;;;;5112382;28;20415;-68
2024/03/14 06:26:22;;;;;;;35.45;14.63;;;;;;;;;;5112533;28;20450;-69
2024/03/14 06:29:08;;;;;;;38.63;13.70;;;;;;;;;;5111505;28;20558;-68
2024/03/14 06:31:53;;;;;;;31.60;14.00;;;;;;;;;;5112797;28;20031;-69
2024/03/14 06:34:39;;;;;;;39.78;14.55;;;;;;;;;;5114839;28;20423;-69
2024/03/14 06:37:25;;;;;;;31.33;13.57;;;;;;;;;;5116641;28;20077;-69
2024/03/14 06:40:14;;;;;;;32.80;12.23;;;;;;;;;;5117093;28;20035;-68
2024/03/14 06:42:59;;;;;;;36.40;15.07;;;;;;;;;;5117406;28;20023;-68
2024/03/14 06:45:45;;;;;;;40.08;14.52;;;;;;;;;;5116495;28;20097;-69
2024/03/14 06:48:31;;;;;;;36.20;14.07;;;;;;;;;;5116441;28;20023;-69
2024/03/14 06:51:17;;;;;;;35.60;13.77;;;;;;;;;;5096129;28;20485;-69
2024/03/14 06:54:04;;;;;;;35.33;13.18;;;;;;;;;;5095613;28;20408;-68
2024/03/14 06:56:52;;;;;;;28.92;11.18;;;;;;;;;;5115647;28;20043;-69
2024/03/14 06:59:37;;;;;;;28.27;12.15;;;;;;;;;;5116792;28;20030;-68
2024/03/14 07:02:24;;;;;;;34.30;12.55;;;;;;;;;;5115962;28;20055;-69
2024/03/14 07:05:14;;;;;;;27.65;11.93;;;;;;;;;;5115785;28;20027;-69
2024/03/14 07:08:03;;;;;;;29.77;10.68;;;;;;;;;;5115412;28;20491;-69
2024/03/14 07:10:51;;;;;;;29.92;11.60;;;;;;;;;;5115691;28;20047;-69
2024/03/14 07:13:38;;;;;;;37.45;12.13;;;;;;;;;;5116251;28;20011;-68
2024/03/14 07:16:23;;;;;;;27.83;11.20;;;;;;;;;;5116624;28;20020;-69
2024/03/14 07:19:09;;;;;;;29.73;10.85;;;;;;;;;;5115936;28;20065;-69
2024/03/14 07:21:55;;;;;;;32.45;10.38;;;;;;;;;;5115750;28;20080;-69
2024/03/14 07:24:40;;;;;;;27.77;10.07;;;;;;;;;;5115099;28;20119;-68
2024/03/14 07:27:27;;;;;;;21.73;9.07;;;;;;;;;;5116315;28;20024;-69
2024/03/14 07:30:14;;;;;;;21.60;9.90;;;;;;;;;;5114728;28;20049;-69
2024/03/14 07:33:00;;;;;;;23.73;10.13;;;;;;;;;;5095358;28;20547;-69
2024/03/14 07:35:48;;;;;;;31.85;11.52;;;;;;;;;;5095311;28;20059;-69
2024/03/14 07:38:34;;;;;;;26.80;11.02;;;;;;;;;;5112041;28;20032;-69
2024/03/14 07:41:20;;;;;;;25.15;10.20;;;;;;;;;;5115770;28;20023;-69
2024/03/14 07:44:06;;;;;;;25.25;10.68;;;;;;;;;;5114875;28;20043;-69
2024/03/14 07:46:51;;;;;;;27.00;10.80;;;;;;;;;;5113708;28;20605;-69
2024/03/14 07:49:39;;;;;;;26.10;11.90;;;;;;;;;;5114950;28;20046;-69
2024/03/14 07:52:26;;;;;;;27.15;10.90;;;;;;;;;;5114473;28;20189;-69
2024/03/14 07:55:11;;;;;;;25.77;11.77;;;;;;;;;;5115388;28;20449;-68
2024/03/14 07:57:57;;;;;;;26.95;12.13;;;;;;;;;;5115287;28;20377;-69
2024/03/14 08:00:43;;;;;;;29.67;11.70;;;;;;;;;;5115649;27;20102;-69
2024/03/14 08:03:29;;;;;;;33.03;12.50;;;;;;;;;;5114663;28;20020;-69
2024/03/14 08:06:16;;;;;;;29.92;12.35;;;;;;;;;;5115556;28;20031;-69
2024/03/14 08:09:02;;;;;;;35.58;12.25;;;;;;;;;;5113789;28;20489;-69
2024/03/14 08:11:47;;;;;;;27.90;11.98;;;;;;;;;;5114190;28;20034;-69
2024/03/14 08:14:36;;;;;;;33.20;13.00;;;;;;;;;;5114612;28;20027;-69
2024/03/14 08:17:21;;;;;;;27.50;11.55;;;;;;;;;;5104521;28;20114;-68
2024/03/14 08:20:09;;;;;;;30.13;11.65;;;;;;;;;;5114654;28;20020;-69
2024/03/14 08:22:54;;;;;;;33.65;13.13;;;;;;;;;;5114604;28;20051;-69
2024/03/14 08:25:41;;;;;;;28.90;12.95;;;;;;;;;;5114248;28;20469;-69
2024/03/14 08:28:26;;;;;;;28.92;12.65;;;;;;;;;;5115326;28;20106;-69
2024/03/14 08:31:15;;;;;;;30.23;12.65;;;;;;;;;;5114365;28;20026;-68
2024/03/14 08:34:01;;;;;;;34.72;12.40;;;;;;;;;;5098814;28;20096;-69
2024/03/14 08:36:46;;;;;;;28.95;12.88;;;;;;;;;;5113940;28;20020;-68
2024/03/14 08:39:33;;;;;;;31.90;14.02;;;;;;;;;;5115133;28;20031;-69
2024/03/14 08:42:27;;;;;;;27.95;12.30;;;;;;;;;;5114347;28;20020;-69
2024/03/14 08:45:14;;;;;;;31.60;13.18;;;;;;;;;;5114480;28;20016;-69
2024/03/14 08:48:00;;;;;;;29.52;13.05;;;;;;;;;;5114659;28;20046;-69
2024/03/14 08:50:46;;;;;;;28.13;13.50;;;;;;;;;;5114541;28;20023;-69
2024/03/14 08:54:07;;;;;;;31.42;13.50;;;;;;;;;;5113734;28;20019;-69
2024/03/14 08:56:45;;;;;;;31.45;13.27;;;;;;;;;;5112131;28;20103;-69
2024/03/14 08:59:35;;;;;;;35.13;14.73;;;;;;;;;;5113161;28;20388;-69
2024/03/14 09:02:27;;;;;;;37.40;14.95;;;;;;;;;;5114189;28;20050;-69
2024/03/14 09:05:14;;;;;;;30.25;12.85;;;;;;;;;;5094171;28;20059;-69
2024/03/14 09:08:00;;;;;;;31.73;12.98;;;;;;;;;;5092069;28;20028;-69
2024/03/14 09:10:45;;;;;;;32.28;12.98;;;;;;;;;;5112012;28;20110;-69
2024/03/14 09:13:31;;;;;;;27.63;12.95;;;;;;;;;;5113302;28;20051;-69
2024/03/14 09:16:19;;;;;;;30.38;13.38;;;;;;;;;;5112801;28;20080;-69
2024/03/14 09:19:05;;;;;;;29.45;14.55;;;;;;;;;;5113500;28;20026;-69
2024/03/14 09:21:50;;;;;;;35.28;14.20;;;;;;;;;;5113711;28;20374;-69
2024/03/14 09:24:36;;;;;;;30.55;13.63;;;;;;;;;;5111804;28;20095;-69
2024/03/14 09:27:23;;;;;;;32.88;12.85;;;;;;;;;;5113193;28;20092;-69
2024/03/14 09:30:09;;;;;;;30.13;13.45;;;;;;;;;;5112678;28;20128;-68
2024/03/14 09:32:55;;;;;;;26.85;13.40;;;;;;;;;;5113255;28;20054;-68
2024/03/14 09:35:44;;;;;;;26.95;12.70;;;;;;;;;;5113249;28;20015;-69
2024/03/14 09:38:33;;;;;;;31.08;13.63;;;;;;;;;;5113763;28;20023;-68
2024/03/14 09:41:19;;;;;;;26.25;12.85;;;;;;;;;;5113639;28;20030;-68
2024/03/14 09:44:05;;;;;;;26.92;12.55;;;;;;;;;;5113061;28;20057;-69
2024/03/14 09:47:00;;;;;;;28.40;13.75;;;;;;;;;;5111986;28;20089;-69
2024/03/14 09:49:53;;;;;;;29.92;13.27;;;;;;;;;;5097161;28;20028;-69
2024/03/14 09:52:39;;;;;;;28.58;12.43;;;;;;;;;;5113018;28;20027;-69
2024/03/14 09:55:28;;;;;;;30.38;12.35;;;;;;;;;;5112702;28;20023;-69
2024/03/14 09:58:14;;;;;;;31.00;13.13;;;;;;;;;;5113776;28;20507;-69
2024/03/14 10:01:03;;;;;;;27.08;13.15;;;;;;;;;;5113721;28;20050;-69
2024/03/14 10:03:50;;;;;;;25.85;11.95;;;;;;;;;;5097474;28;20031;-69
2024/03/14 10:06:40;;;;;;;27.58;13.45;;;;;;;;;;5113942;28;20397;-69
2024/03/14 10:09:25;;;;;;;23.73;13.35;;;;;;;;;;5112348;28;20075;-69
2024/03/14 10:12:12;;;;;;;29.33;14.52;;;;;;;;;;5112132;28;20019;-69
2024/03/14 10:15:03;;;;;;;26.02;12.93;;;;;;;;;;5111521;28;20023;-69
2024/03/14 10:17:51;;;;;;;21.90;11.55;;;;;;;;;;5110806;28;20026;-69
2024/03/14 10:20:37;;;;;;;24.17;11.52;;;;;;;;;;5112506;28;20047;-69
2024/03/14 10:23:25;;;;;;;27.05;12.68;;;;;;;;;;5111927;28;20023;-70
2024/03/14 10:26:11;;;;;;;22.95;12.55;;;;;;;;;;5110291;28;20396;-69
2024/03/14 10:28:57;;;;;;;23.23;13.20;;;;;;;;;;5112577;28;20031;-68
2024/03/14 10:31:43;;;;;;;27.13;12.27;;;;;;;;;;5112840;28;20024;-69
2024/03/14 10:34:29;;;;;;;25.10;11.68;;;;;;;;;;5112575;28;20027;-69
2024/03/14 10:37:15;;;;;;;27.42;11.73;;;;;;;;;;5111940;28;20112;-69
2024/03/14 10:40:04;;;;;;;30.38;14.10;;;;;;;;;;5112722;28;20028;-69
2024/03/14 10:42:50;;;;;;;23.92;11.50;;;;;;;;;;5110466;28;20035;-70
2024/03/14 10:45:36;;;;;;;23.40;11.82;;;;;;;;;;5111300;28;20019;-70
2024/03/14 10:48:22;;;;;;;27.23;12.77;;;;;;;;;;5110903;28;20016;-69
2024/03/14 10:51:08;;;;;;;27.85;14.68;;;;;;;;;;5091449;28;20101;-69
2024/03/14 10:53:55;;;;;;;23.13;11.70;;;;;;;;;;5090573;28;20023;-69
2024/03/14 10:56:42;;;;;;;25.75;12.15;;;;;;;;;;5109208;28;20492;-69
2024/03/14 10:59:29;;;;;;;23.08;12.32;;;;;;;;;;5111412;28;20116;-69
2024/03/14 11:02:16;;;;;;;28.08;12.63;;;;;;;;;;5112047;28;20042;-69
2024/03/14 11:05:03;;;;;;;19.83;11.82;;;;;;;;;;5110949;28;20040;-69
2024/03/14 11:08:00;;;;;;;24.40;11.88;;;;;;;;;;5111391;28;20434;-69
2024/03/14 11:10:46;;;;;;;24.67;12.02;;;;;;;;;;5112306;28;20075;-69
2024/03/14 11:13:32;;;;;;;25.33;11.93;;;;;;;;;;5111647;28;20053;-69
2024/03/14 11:16:18;;;;;;;28.35;12.13;;;;;;;;;;5112270;28;20489;-69
2024/03/14 11:19:05;;;;;;;22.52;11.68;;;;;;;;;;5111763;28;20023;-69
2024/03/14 11:21:55;;;;;;;27.58;11.27;;;;;;;;;;5114442;28;20024;-69
2024/03/14 11:24:41;;;;;;;20.23;11.48;;;;;;;;;;5157366;22;20139;-71
2024/03/14 11:27:27;;;;;;;24.77;12.30;;;;;;;;;;5061415;28;20027;-71
2024/03/14 11:30:16;;;;;;;23.70;13.30;;;;;;;;;;5061130;28;20082;-71
2024/03/14 11:33:08;;;;;;;22.70;12.18;;;;;;;;;;5060829;28;20029;-71
2024/03/14 11:35:58;;;;;;;25.65;13.57;;;;;;;;;;5092311;28;20028;-71
2024/03/14 11:38:44;;;;;;;22.85;11.77;;;;;;;;;;5099599;28;20027;-71
2024/03/14 11:41:30;;;;;;;23.50;11.63;;;;;;;;;;5115242;28;20027;-71
2024/03/14 11:44:20;;;;;;;24.55;12.35;;;;;;;;;;5115083;28;20016;-71
2024/03/14 11:47:06;;;;;;;21.90;10.98;;;;;;;;;;5100201;28;20027;-72
2024/03/14 11:49:55;;;;;;;20.30;10.68;;;;;;;;;;5101498;28;20016;-71
2024/03/14 11:52:41;;;;;;;20.30;11.07;;;;;;;;;;5100586;28;20056;-71
2024/03/14 11:55:30;;;;;;;22.27;10.57;;;;;;;;;;5114553;28;20020;-71
2024/03/14 11:58:16;;;;;;;20.23;11.43;;;;;;;;;;5115535;28;20016;-71
2024/03/14 12:01:04;;;;;;;19.58;10.90;;;;;;;;;;5100229;28;20027;-71
2024/03/14 12:03:50;;;;;;;24.95;10.68;;;;;;;;;;5115747;28;20020;-71
2024/03/14 12:06:35;;;;;;;18.95;9.55;;;;;;;;;;5115147;28;20027;-71
2024/03/14 12:09:22;;;;;;;21.50;11.27;;;;;;;;;;5101187;28;20027;-70
2024/03/14 12:12:08;;;;;;;18.48;10.48;;;;;;;;;;5099656;28;20027;-71
2024/03/14 12:14:55;;;;;;;24.45;10.07;;;;;;;;;;5114087;28;20026;-71
2024/03/14 12:17:41;;;;;;;22.48;10.82;;;;;;;;;;5099830;28;20569;-71
2024/03/14 12:20:28;;;;;;;17.23;10.02;;;;;;;;;;5100252;28;20028;-71
2024/03/14 12:23:13;;;;;;;22.75;10.65;;;;;;;;;;5114077;28;20023;-71
2024/03/14 12:26:06;;;;;;;18.92;10.40;;;;;;;;;;5114285;28;20112;-71
2024/03/14 12:28:54;;;;;;;25.17;10.75;;;;;;;;;;5094763;28;20023;-71
2024/03/14 12:31:41;;;;;;;17.15;9.05;;;;;;;;;;5087880;28;20031;-71
2024/03/14 12:34:27;;;;;;;18.58;11.57;;;;;;;;;;5100849;28;20007;-71
2024/03/14 12:37:13;;;;;;;19.73;9.82;;;;;;;;;;5115614;28;20027;-71
2024/03/14 12:39:59;;;;;;;19.75;10.23;;;;;;;;;;5115589;28;20485;-71
2024/03/14 12:42:46;;;;;;;19.45;9.70;;;;;;;;;;5099097;28;20019;-71
2024/03/14 12:45:33;;;;;;;20.10;9.15;;;;;;;;;;5100391;28;20027;-72
2024/03/14 12:48:19;;;;;;;22.10;10.80;;;;;;;;;;5100326;28;20016;-71
2024/03/14 12:51:12;;;;;;;19.17;9.38;;;;;;;;;;5114670;28;20106;-71
2024/03/14 12:54:00;;;;;;;19.08;10.20;;;;;;;;;;5114168;28;20085;-70
2024/03/14 12:56:51;;;;;;;18.63;9.43;;;;;;;;;;5100047;28;20020;-71
2024/03/14 12:59:37;;;;;;;18.42;9.85;;;;;;;;;;5098396;28;20027;-71
2024/03/14 13:02:23;;;;;;;17.25;9.45;;;;;;;;;;5100237;28;20019;-71
2024/03/14 13:05:12;;;;;;;19.02;8.73;;;;;;;;;;5115395;28;20023;-71
2024/03/14 13:08:03;;;;;;;16.85;9.80;;;;;;;;;;5100513;28;20028;-71
2024/03/14 13:10:50;;;;;;;20.40;9.80;;;;;;;;;;5114689;28;20456;-71
2024/03/14 13:13:38;;;;;;;14.88;10.07;;;;;;;;;;5114826;28;20058;-71
2024/03/14 13:16:29;;;;;;;16.58;8.75;;;;;;;;;;5099789;28;20031;-71
2024/03/14 13:19:15;;;;;;;19.85;10.68;;;;;;;;;;5098872;28;20024;-72
2024/03/14 13:22:00;;;;;;;17.48;9.60;;;;;;;;;;5113873;28;20088;-71
2024/03/14 13:24:49;;;;;;;16.40;9.32;;;;;;;;;;5102695;28;20016;-71
2024/03/14 13:27:35;;;;;;;18.30;9.27;;;;;;;;;;5078389;28;20024;-71
2024/03/14 13:30:21;;;;;;;15.48;9.07;;;;;;;;;;5100202;28;20485;-71
2024/03/14 13:33:09;;;;;;;16.10;9.20;;;;;;;;;;5098004;28;20097;-71
2024/03/14 13:35:55;;;;;;;16.42;9.00;;;;;;;;;;5098213;28;20032;-71
2024/03/14 13:38:42;;;;;;;17.02;9.65;;;;;;;;;;5085794;28;20023;-71
2024/03/14 13:41:30;;;;;;;19.33;9.50;;;;;;;;;;5098115;28;20015;-71
2024/03/14 13:44:16;;;;;;;15.88;8.85;;;;;;;;;;5093642;28;20016;-72
2024/03/14 13:47:02;;;;;;;17.80;8.77;;;;;;;;;;5091637;28;20039;-72
2024/03/14 13:49:51;;;;;;;15.73;10.05;;;;;;;;;;5081184;28;20024;-71
2024/03/14 13:52:38;;;;;;;17.33;8.82;;;;;;;;;;5098725;28;20020;-71
2024/03/14 13:55:33;;;;;;;17.67;9.18;;;;;;;;;;5113958;28;20405;-71
2024/03/14 13:58:22;;;;;;;18.83;10.63;;;;;;;;;;5093999;28;20405;-71
2024/03/14 14:01:19;;;;;;;19.77;9.57;;;;;;;;;;5095701;28;20016;-71
2024/03/14 14:04:05;;;;;;;17.02;10.25;;;;;;;;;;5113673;28;20051;-71
2024/03/14 14:06:52;;;;;;;18.00;8.95;;;;;;;;;;5085233;28;20169;-71
2024/03/14 14:09:37;;;;;;;21.05;10.10;;;;;;;;;;5100044;28;20488;-71
2024/03/14 14:12:25;;;;;;;15.48;8.45;;;;;;;;;;5098456;28;20453;-71
2024/03/14 14:15:11;;;;;;;16.58;8.02;;;;;;;;;;5098242;28;20069;-71
2024/03/14 14:17:57;;;;;;;17.55;10.07;;;;;;;;;;5112367;28;20028;-71
2024/03/14 14:20:43;;;;;;;15.93;8.90;;;;;;;;;;5112670;28;20023;-72
2024/03/14 14:23:30;;;;;;;17.35;8.82;;;;;;;;;;5112673;28;20030;-71
2024/03/14 14:26:16;;;;;;;18.55;9.50;;;;;;;;;;5100437;28;20038;-71
2024/03/14 14:29:04;;;;;;;17.38;9.75;;;;;;;;;;5074845;28;20024;-71
2024/03/14 14:31:50;;;;;;;21.48;10.50;;;;;;;;;;5106880;28;20031;-71
2024/03/14 14:34:36;;;;;;;21.05;10.38;;;;;;;;;;5097988;28;20022;-72
2024/03/14 14:37:22;;;;;;;17.45;9.50;;;;;;;;;;5111982;28;20034;-71
2024/03/14 14:40:11;;;;;;;21.23;10.43;;;;;;;;;;5113367;28;20019;-72
2024/03/14 14:42:57;;;;;;;23.45;11.00;;;;;;;;;;5103162;28;20015;-72
2024/03/14 14:45:43;;;;;;;21.92;11.10;;;;;;;;;;5113252;28;20101;-71
2024/03/14 14:48:29;;;;;;;21.40;10.77;;;;;;;;;;5111938;28;20026;-71
2024/03/14 14:51:14;;;;;;;21.83;10.25;;;;;;;;;;5113673;28;20035;-72
2024/03/14 14:54:03;;;;;;;20.98;10.18;;;;;;;;;;5112406;28;20026;-72
2024/03/14 14:56:49;;;;;;;22.10;11.07;;;;;;;;;;5102744;28;20020;-72
2024/03/14 14:59:37;;;;;;;18.77;10.45;;;;;;;;;;5116865;28;20034;-71
2024/03/14 15:02:24;;;;;;;18.80;10.50;;;;;;;;;;5103019;28;20024;-72
2024/03/14 15:05:10;;;;;;;21.02;12.32;;;;;;;;;;5116212;28;20027;-72
2024/03/14 15:07:55;;;;;;;19.83;9.93;;;;;;;;;;5110981;28;20023;-72
2024/03/14 15:10:42;;;;;;;20.85;10.38;;;;;;;;;;5117429;28;20481;-72
2024/03/14 15:13:27;;;;;;;19.95;10.18;;;;;;;;;;5116133;28;20015;-72
2024/03/14 15:16:13;;;;;;;18.45;10.23;;;;;;;;;;5116475;28;20026;-71
2024/03/14 15:19:03;;;;;;;18.48;9.70;;;;;;;;;;5116018;28;20027;-71
2024/03/14 15:21:48;;;;;;;16.95;10.43;;;;;;;;;;5097555;28;20024;-71
2024/03/14 15:24:36;;;;;;;16.42;10.30;;;;;;;;;;5112248;28;20183;-71
2024/03/14 15:27:22;;;;;;;16.58;9.65;;;;;;;;;;5101360;28;20382;-71
2024/03/14 15:30:09;;;;;;;18.95;10.48;;;;;;;;;;5102243;28;20031;-71
2024/03/14 15:32:57;;;;;;;18.85;10.00;;;;;;;;;;5116398;28;20027;-72
2024/03/14 15:35:43;;;;;;;21.75;9.98;;;;;;;;;;5115263;28;20394;-71
2024/03/14 15:38:28;;;;;;;16.98;10.40;;;;;;;;;;5116857;28;20015;-71
2024/03/14 15:41:14;;;;;;;19.80;9.60;;;;;;;;;;5100747;28;20030;-71
2024/03/14 15:44:00;;;;;;;17.77;9.23;;;;;;;;;;5087877;28;20022;-71
2024/03/14 15:46:45;;;;;;;18.48;10.25;;;;;;;;;;5116312;28;20111;-71
2024/03/14 15:49:32;;;;;;;20.98;9.90;;;;;;;;;;5115334;28;20494;-71
2024/03/14 15:52:18;;;;;;;18.63;10.43;;;;;;;;;;5100556;28;20467;-71
2024/03/14 15:55:05;;;;;;;23.90;11.15;;;;;;;;;;5100981;28;20024;-71
2024/03/14 15:57:50;;;;;;;21.00;10.02;;;;;;;;;;5116106;28;20020;-71
2024/03/14 16:00:36;;;;;;;14.52;8.23;;;;;;;;;;5101427;28;20020;-71
2024/03/14 16:03:22;;;;;;;18.10;10.32;;;;;;;;;;5116031;28;20026;-71
2024/03/14 16:06:07;;;;;;;21.70;9.45;;;;;;;;;;5115107;28;20069;-71
2024/03/14 16:08:53;;;;;;;17.13;9.98;;;;;;;;;;5099866;28;20026;-71
2024/03/14 16:11:39;;;;;;;22.88;10.15;;;;;;;;;;5100716;28;20016;-71
2024/03/14 16:14:24;;;;;;;16.85;9.63;;;;;;;;;;5115496;28;20439;-71
2024/03/14 16:17:10;;;;;;;17.42;10.02;;;;;;;;;;5115848;28;20019;-71